Observation data for Abernathy on 12/14/2019      Previous  Date       Current Mesonet Observations  Soil Data  Daily Summary Page  Observations in Plain Language
KARS 140600Z 32006KT 03/M05 A2993 RMK A01 T00271048  RH  058%=      5-min Rain = 0
KARS 140605Z 36007KT 03/M05 A2993 RMK A01 T00311047  RH  057%=      5-min Rain = 0
KARS 140610Z 36007KT 03/M05 A2993 RMK A01 T00311048  RH  056%=      5-min Rain = 0
KARS 140615Z 36007KT 03/M05 A2993 RMK A01 T00261048  RH  058%=      5-min Rain = 0
KARS 140620Z 36008KT 03/M05 A2993 RMK A01 T00251046  RH  060%=      5-min Rain = 0
KARS 140625Z 35007KT 02/M05 A2993 RMK A01 T00241046  RH  060%=      5-min Rain = 0
KARS 140630Z 00007KT 02/M05 A2993 RMK A01 T00231045  RH  061%=      5-min Rain = 0
KARS 140635Z 36006KT 02/M05 A2993 RMK A01 T00211045  RH  062%=      5-min Rain = 0
KARS 140640Z 02006KT 02/M04 A2992 RMK A01 T00201044  RH  063%=      5-min Rain = 0
KARS 140645Z 01006KT 02/M04 A2993 RMK A01 T00201043  RH  063%=      5-min Rain = 0
KARS 140650Z 02006KT 02/M04 A2993 RMK A01 T00161043  RH  065%=      5-min Rain = 0
KARS 140655Z 02006KT 02/M04 A2993 RMK A01 T00161043  RH  065%=      5-min Rain = 0
KARS 140700Z 02005KT 02/M04 A2993 RMK A01 T00151044  RH  065%=      5-min Rain = 0
KARS 140705Z 02005KT 01/M05 A2992 RMK A01 T00131045  RH  066%=      5-min Rain = 0
KARS 140710Z 03005KT 01/M04 A2992 RMK A01 T00141044  RH  065%=      5-min Rain = 0
KARS 140715Z 01005KT 01/M04 A2993 RMK A01 T00141044  RH  065%=      5-min Rain = 0
KARS 140720Z 03004KT 01/M05 A2992 RMK A01 T00121046  RH  065%=      5-min Rain = 0
KARS 140725Z 04004KT 01/M05 A2992 RMK A01 T00121048  RH  065%=      5-min Rain = 0
KARS 140730Z 04003KT 01/M05 A2992 RMK A01 T00081050  RH  065%=      5-min Rain = 0
KARS 140735Z 03003KT 01/M05 A2992 RMK A01 T00081048  RH  066%=      5-min Rain = 0
KARS 140740Z 03003KT 01/M05 A2992 RMK A01 T00081048  RH  066%=      5-min Rain = 0
KARS 140745Z 04003KT 01/M05 A2992 RMK A01 T00091047  RH  066%=      5-min Rain = 0
KARS 140750Z 05003KT 01/M05 A2992 RMK A01 T00091046  RH  067%=      5-min Rain = 0
KARS 140755Z 03003KT 01/M05 A2992 RMK A01 T00101047  RH  066%=      5-min Rain = 0
KARS 140800Z 35003KT 01/M05 A2992 RMK A01 T00071046  RH  068%=      5-min Rain = 0
KARS 140805Z 35005KT 01/M05 A2993 RMK A01 T00061047  RH  068%=      5-min Rain = 0
KARS 140810Z 35005KT 00/M05 A2993 RMK A01 T00041048  RH  068%=      5-min Rain = 0
KARS 140815Z 35005KT 01/M05 A2993 RMK A01 T00051048  RH  068%=      5-min Rain = 0
KARS 140820Z 00005KT 01/M05 A2993 RMK A01 T00051048  RH  068%=      5-min Rain = 0
KARS 140825Z 01005KT 00/M05 A2993 RMK A01 T00041049  RH  068%=      5-min Rain = 0
KARS 140830Z 01005KT 00/M05 A2993 RMK A01 T00041048  RH  068%=      5-min Rain = 0
KARS 140835Z 02006KT 01/M04 A2993 RMK A01 T00061044  RH  069%=      5-min Rain = 0
KARS 140840Z 02006KT 01/M04 A2993 RMK A01 T00051044  RH  070%=      5-min Rain = 0
KARS 140845Z 03006KT 00/M04 A2993 RMK A01 T00031043  RH  071%=      5-min Rain = 0
KARS 140850Z 04005KT 00/M04 A2993 RMK A01 T00041043  RH  071%=      5-min Rain = 0
KARS 140855Z 05005KT 00/M04 A2992 RMK A01 T00041044  RH  071%=      5-min Rain = 0
KARS 140900Z 06005KT 00/M04 A2992 RMK A01 T00031044  RH  071%=      5-min Rain = 0
KARS 140905Z 04004KT 00/M05 A2992 RMK A01 T00021045  RH  071%=      5-min Rain = 0
KARS 140910Z 06003KT M00/M05 A2992 RMK A01 T10021047  RH  072%=      5-min Rain = 0
KARS 140915Z 06004KT 00/M05 A2992 RMK A01 T00011045  RH  072%=      5-min Rain = 0
KARS 140920Z 06005KT 00/M05 A2991 RMK A01 T00031045  RH  071%=      5-min Rain = 0
KARS 140925Z 06004KT 00/05 A2991 RMK A01 T00-00-47  RH  071%=      5-min Rain = 0
KARS 140930Z 07005KT 01/M04 A299 RMK A01 T00071041  RH  070%=      5-min Rain = 0
KARS 140935Z 06005KT 01/M04 A2991 RMK A01 T00141040  RH  067%=      5-min Rain = 0
KARS 140940Z 06006KT 01/M04 A299 RMK A01 T00141041  RH  067%=      5-min Rain = 0
KARS 140945Z 07006KT 02/M04 A299 RMK A01 T00181040  RH  066%=      5-min Rain = 0
KARS 140950Z 07006KT 02/M04 A299 RMK A01 T00171041  RH  066%=      5-min Rain = 0
KARS 140955Z 07006KT 02/M04 A299 RMK A01 T00181040  RH  066%=      5-min Rain = 0
KARS 141000Z 06006KT 02/M04 A299 RMK A01 T00191040  RH  065%=      5-min Rain = 0
KARS 141005Z 06005KT 02/M04 A299 RMK A01 T00201039  RH  065%=      5-min Rain = 0
KARS 141010Z 07006KT 02/M04 A299 RMK A01 T00241038  RH  064%=      5-min Rain = 0
KARS 141015Z 07007KT 02/M04 A2989 RMK A01 T00241037  RH  065%=      5-min Rain = 0
KARS 141020Z 07008KT 02/M03 A2989 RMK A01 T00241033  RH  066%=      5-min Rain = 0
KARS 141025Z 07008KT 03/M03 A2989 RMK A01 T00271030  RH  067%=      5-min Rain = 0
KARS 141030Z 07009KT 03/M03 A2988 RMK A01 T00341027  RH  065%=      5-min Rain = 0
KARS 141035Z 07008KT 04/M03 A2988 RMK A01 T00361026  RH  064%=      5-min Rain = 0
KARS 141040Z 08008KT 04/M03 A2988 RMK A01 T00371025  RH  064%=      5-min Rain = 0
KARS 141045Z 08008KT 04/M03 A2987 RMK A01 T00371026  RH  064%=      5-min Rain = 0
KARS 141050Z 08007KT 04/M03 A2987 RMK A01 T00361027  RH  064%=      5-min Rain = 0
KARS 141055Z 07007KT 03/M03 A2987 RMK A01 T00331027  RH  065%=      5-min Rain = 0
KARS 141100Z 06007KT 03/M03 A2987 RMK A01 T00331027  RH  066%=      5-min Rain = 0
KARS 141105Z 06007KT 04/M03 A2987 RMK A01 T00361025  RH  065%=      5-min Rain = 0
KARS 141110Z 06007KT 04/M02 A2987 RMK A01 T00371023  RH  065%=      5-min Rain = 0
KARS 141115Z 06007KT 04/M02 A2987 RMK A01 T00391022  RH  065%=      5-min Rain = 0
KARS 141120Z 07007KT 04/M02 A2987 RMK A01 T00391022  RH  065%=      5-min Rain = 0
KARS 141125Z 07007KT 04/M02 A2987 RMK A01 T00391022  RH  065%=      5-min Rain = 0
KARS 141130Z 07007KT 04/M02 A2987 RMK A01 T00371022  RH  066%=      5-min Rain = 0
KARS 141135Z 06006KT 04/M02 A2987 RMK A01 T00361021  RH  067%=      5-min Rain = 0
KARS 141140Z 06006KT 04/M02 A2987 RMK A01 T00381021  RH  066%=      5-min Rain = 0
KARS 141145Z 06006KT 04/M02 A2987 RMK A01 T00371024  RH  065%=      5-min Rain = 0
KARS 141150Z 07007KT 03/M03 A2987 RMK A01 T00331026  RH  065%=      5-min Rain = 0
KARS 141155Z 08007KT 03/M03 A2987 RMK A01 T00281029  RH  066%=      5-min Rain = 0
KARS 141200Z 08007KT 03/M03 A2986 RMK A01 T00261031  RH  067%=      5-min Rain = 0
KARS 141205Z 08007KT 03/M03 A2986 RMK A01 T00291033  RH  064%=      5-min Rain = 0
KARS 141210Z 08007KT 03/M04 A2986 RMK A01 T00291035  RH  063%=      5-min Rain = 0
KARS 141215Z 08007KT 03/M04 A2986 RMK A01 T00261036  RH  064%=      5-min Rain = 0
KARS 141220Z 09006KT 02/M04 A2986 RMK A01 T00241036  RH  065%=      5-min Rain = 0
KARS 141225Z 09007KT 02/M04 A2986 RMK A01 T00211037  RH  066%=      5-min Rain = 0
KARS 141230Z 09007KT 02/M04 A2986 RMK A01 T00181038  RH  067%=      5-min Rain = 0
KARS 141235Z 09006KT 02/M04 A2987 RMK A01 T00151039  RH  067%=      5-min Rain = 0
KARS 141240Z 08006KT 02/M04 A2987 RMK A01 T00151040  RH  067%=      5-min Rain = 0
KARS 141245Z 08006KT 02/M04 A2987 RMK A01 T00171040  RH  066%=      5-min Rain = 0
KARS 141250Z 08006KT 02/M04 A2987 RMK A01 T00151041  RH  067%=      5-min Rain = 0
KARS 141255Z 07006KT 01/M04 A2987 RMK A01 T00121041  RH  068%=      5-min Rain = 0
KARS 141300Z 08006KT 01/M04 A2987 RMK A01 T00131043  RH  067%=      5-min Rain = 0
KARS 141305Z 08006KT 01/M04 A2987 RMK A01 T00101044  RH  067%=      5-min Rain = 0
KARS 141310Z 07007KT 01/M04 A2988 RMK A01 T00121043  RH  067%=      5-min Rain = 0
KARS 141315Z 07006KT 01/M04 A2988 RMK A01 T00131044  RH  066%=      5-min Rain = 0
KARS 141320Z 07007KT 01/M04 A2988 RMK A01 T00121044  RH  067%=      5-min Rain = 0
KARS 141325Z 08008KT 01/M04 A2988 RMK A01 T00111043  RH  067%=      5-min Rain = 0
KARS 141330Z 06007KT 01/M04 A2988 RMK A01 T00141042  RH  066%=      5-min Rain = 0
KARS 141335Z 05006KT 01/M05 A2989 RMK A01 T00091045  RH  067%=      5-min Rain = 0
KARS 141340Z 08007KT 01/M04 A2988 RMK A01 T00111044  RH  067%=      5-min Rain = 0
KARS 141345Z 09008KT 01/M04 A2988 RMK A01 T00141044  RH  065%=      5-min Rain = 0
KARS 141350Z 08007KT 02/M04 A2989 RMK A01 T00171044  RH  064%=      5-min Rain = 0
KARS 141355Z 09008KT 02/M04 A2988 RMK A01 T00191044  RH  063%=      5-min Rain = 0
KARS 141400Z 10008KT 02/M04 A2988 RMK A01 T00201044  RH  063%=      5-min Rain = 0
KARS 141405Z 09007KT 02/M04 A2988 RMK A01 T00231044  RH  062%=      5-min Rain = 0
KARS 141410Z 10008KT 03/M04 A2987 RMK A01 T00281044  RH  059%=      5-min Rain = 0
KARS 141415Z 10008KT 03/M04 A2987 RMK A01 T00331044  RH  057%=      5-min Rain = 0
KARS 141420Z 10009KT 04/M04 A2987 RMK A01 T00351044  RH  057%=      5-min Rain = 0
KARS 141425Z 10009KT 04/M04 A2987 RMK A01 T00371043  RH  056%=      5-min Rain = 0
KARS 141430Z 11009KT 04/M04 A2987 RMK A01 T00391043  RH  055%=      5-min Rain = 0
KARS 141435Z 10008KT 04/M04 A2987 RMK A01 T00401042  RH  055%=      5-min Rain = 0
KARS 141440Z 09007KT 04/M04 A2988 RMK A01 T00421040  RH  055%=      5-min Rain = 0
KARS 141445Z 10006KT 05/M04 A2988 RMK A01 T00451040  RH  055%=      5-min Rain = 0
KARS 141450Z 09007KT 05/M04 A2988 RMK A01 T00481039  RH  053%=      5-min Rain = 0
KARS 141455Z 09008KT 05/M04 A2988 RMK A01 T00501040  RH  052%=      5-min Rain = 0
KARS 141500Z 09007KT 05/M04 A2988 RMK A01 T00521038  RH  052%=      5-min Rain = 0
KARS 141505Z 09007KT 06/M04 A2989 RMK A01 T00551037  RH  052%=      5-min Rain = 0
KARS 141510Z 08008KT 06/M04 A2989 RMK A01 T00591035  RH  051%=      5-min Rain = 0
KARS 141515Z 08008KT 06/M03 A2989 RMK A01 T00641032  RH  051%=      5-min Rain = 0
KARS 141520Z 08007KT 07/M03 A2989 RMK A01 T00671030  RH  050%=      5-min Rain = 0
KARS 141525Z 09008KT 07/M03 A2989 RMK A01 T00701028  RH  050%=      5-min Rain = 0
KARS 141530Z 09009KT 07/M03 A2989 RMK A01 T00731025  RH  050%=      5-min Rain = 0
KARS 141535Z 10009KT 07/M03 A2989 RMK A01 T00721025  RH  050%=      5-min Rain = 0
KARS 141540Z 10009KT 07/M02 A2988 RMK A01 T00741023  RH  050%=      5-min Rain = 0
KARS 141545Z 11011KT 08/M02 A2988 RMK A01 T00751023  RH  050%=      5-min Rain = 0
KARS 141550Z 10011KT 08/M02 A2988 RMK A01 T00771022  RH  050%=      5-min Rain = 0
KARS 141555Z 10010KT 08/M02 A2988 RMK A01 T00781021  RH  050%=      5-min Rain = 0
KARS 141600Z 10011KT 08/M02 A2988 RMK A01 T00811021  RH  049%=      5-min Rain = 0
KARS 141605Z 11013KT 08/M02 A2988 RMK A01 T00831024  RH  047%=      5-min Rain = 0
KARS 141610Z 12012KT 09/M02 A2987 RMK A01 T00851023  RH  047%=      5-min Rain = 0
KARS 141615Z 12013KT 09/M02 A2987 RMK A01 T00871022  RH  047%=      5-min Rain = 0
KARS 141620Z 12013KT 09/M02 A2987 RMK A01 T00891020  RH  047%=      5-min Rain = 0
KARS 141625Z 12014KT 09/M02 A2987 RMK A01 T00901019  RH  047%=      5-min Rain = 0
KARS 141630Z 12013KT 09/M02 A2987 RMK A01 T00931016  RH  047%=      5-min Rain = 0
KARS 141635Z 13013G18KT 10/M01 A2986 RMK A01 T00951014  RH  047%=      5-min Rain = 0
KARS 141640Z 14014KT 10/M01 A2986 RMK A01 T00991010  RH  047%=      5-min Rain = 0
KARS 141645Z 14014G19KT 10/M01 A2986 RMK A01 T01021008  RH  047%=      5-min Rain = 0
KARS 141650Z 14016KT 11/M01 A2986 RMK A01 T01051006  RH  047%=      5-min Rain = 0
KARS 141655Z 15015KT 11/M01 A2985 RMK A01 T01051006  RH  047%=      5-min Rain = 0
KARS 141700Z 15015KT 11/M00 A2985 RMK A01 T01091004  RH  046%=      5-min Rain = 0
KARS 141705Z 15016KT 11/M00 A2985 RMK A01 T01111004  RH  045%=      5-min Rain = 0
KARS 141710Z 15016KT 11/M00 A2985 RMK A01 T01121003  RH  045%=      5-min Rain = 0
KARS 141715Z 15014KT 12/M00 A2985 RMK A01 T01161001  RH  045%=      5-min Rain = 0
KARS 141720Z 14014G19KT 12/00 A2985 RMK A01 T011900-0  RH  044%=      5-min Rain = 0
KARS 141725Z 14014G19KT 12/00 A2985 RMK A01 T01210002  RH  044%=      5-min Rain = 0
KARS 141730Z 15017KT 12/00 A2985 RMK A01 T01210002  RH  044%=      5-min Rain = 0
KARS 141735Z 15015G20KT 12/00 A2985 RMK A01 T01220003  RH  045%=      5-min Rain = 0
KARS 141740Z 15015KT 12/01 A2985 RMK A01 T01240006  RH  045%=      5-min Rain = 0
KARS 141745Z 14015KT 13/01 A2985 RMK A01 T01260006  RH  044%=      5-min Rain = 0
KARS 141750Z 15014KT 13/01 A2984 RMK A01 T01250007  RH  045%=      5-min Rain = 0
KARS 141755Z 15014G20KT 13/01 A2984 RMK A01 T01270007  RH  044%=      5-min Rain = 0
KARS 141800Z 16013KT 13/01 A2984 RMK A01 T01290009  RH  044%=      5-min Rain = 0
KARS 141805Z 15014G19KT 13/01 A2983 RMK A01 T01320011  RH  044%=      5-min Rain = 0
KARS 141810Z 16014KT 14/01 A2983 RMK A01 T01350009  RH  043%=      5-min Rain = 0
KARS 141815Z 16014KT 13/01 A2983 RMK A01 T01340010  RH  043%=      5-min Rain = 0
KARS 141820Z 15014KT 14/01 A2982 RMK A01 T01360011  RH  043%=      5-min Rain = 0
KARS 141825Z 15014KT 14/01 A2982 RMK A01 T01380011  RH  042%=      5-min Rain = 0
KARS 141830Z 15014KT 14/01 A2981 RMK A01 T01400010  RH  042%=      5-min Rain = 0
KARS 141835Z 16013KT 14/01 A2981 RMK A01 T01420010  RH  041%=      5-min Rain = 0
KARS 141840Z 15014KT 14/01 A2981 RMK A01 T01420011  RH  041%=      5-min Rain = 0
KARS 141845Z 15014KT 14/01 A298 RMK A01 T01400010  RH  042%=      5-min Rain = 0
KARS 141850Z 16013G18KT 14/01 A298 RMK A01 T01410010  RH  041%=      5-min Rain = 0
KARS 141855Z 15013KT 14/01 A2979 RMK A01 T01430012  RH  041%=      5-min Rain = 0
KARS 141900Z 16014KT 14/01 A2979 RMK A01 T01440011  RH  041%=      5-min Rain = 0
KARS 141905Z 16012KT 15/01 A2979 RMK A01 T01460012  RH  041%=      5-min Rain = 0
KARS 141910Z 16012KT 15/01 A2979 RMK A01 T01460012  RH  041%=      5-min Rain = 0
KARS 141915Z 16013KT 15/01 A2978 RMK A01 T01480013  RH  040%=      5-min Rain = 0
KARS 141920Z 17011G16KT 15/01 A2978 RMK A01 T01490012  RH  040%=      5-min Rain = 0
KARS 141925Z 16013KT 15/01 A2978 RMK A01 T01470013  RH  041%=      5-min Rain = 0
KARS 141930Z 18012KT 15/01 A2977 RMK A01 T01490014  RH  040%=      5-min Rain = 0
KARS 141935Z 17013KT 15/01 A2977 RMK A01 T01490014  RH  040%=      5-min Rain = 0
KARS 141940Z 17011G16KT 15/01 A2976 RMK A01 T01490013  RH  040%=      5-min Rain = 0
KARS 141945Z 17011KT 15/01 A2976 RMK A01 T01510014  RH  040%=      5-min Rain = 0
KARS 141950Z 17011KT 15/02 A2976 RMK A01 T01490015  RH  041%=      5-min Rain = 0
KARS 141955Z 17012KT 15/02 A2976 RMK A01 T01520016  RH  040%=      5-min Rain = 0
KARS 142000Z 17011G16KT 15/02 A2976 RMK A01 T01510016  RH  041%=      5-min Rain = 0
KARS 142005Z 16012G17KT 15/02 A2975 RMK A01 T01500017  RH  041%=      5-min Rain = 0
KARS 142010Z 16012G17KT 15/02 A2975 RMK A01 T01530017  RH  040%=      5-min Rain = 0
KARS 142015Z 17012KT 15/02 A2975 RMK A01 T01540017  RH  040%=      5-min Rain = 0
KARS 142020Z 16011KT 15/02 A2975 RMK A01 T01540017  RH  040%=      5-min Rain = 0
KARS 142025Z 17011KT 15/02 A2975 RMK A01 T01530017  RH  040%=      5-min Rain = 0
KARS 142030Z 17011KT 15/02 A2975 RMK A01 T01540017  RH  040%=      5-min Rain = 0
KARS 142035Z 17011KT 16/02 A2975 RMK A01 T01580017  RH  039%=      5-min Rain = 0
KARS 142040Z 16012G17KT 16/02 A2975 RMK A01 T01570018  RH  039%=      5-min Rain = 0
KARS 142045Z 17011KT 16/02 A2974 RMK A01 T01570018  RH  040%=      5-min Rain = 0
KARS 142050Z 18012KT 16/02 A2974 RMK A01 T01590015  RH  038%=      5-min Rain = 0
KARS 142055Z 17012KT 16/02 A2974 RMK A01 T01600016  RH  038%=      5-min Rain = 0
KARS 142100Z 18011KT 16/02 A2974 RMK A01 T01610015  RH  038%=      5-min Rain = 0
KARS 142105Z 18012KT 16/01 A2974 RMK A01 T01620014  RH  037%=      5-min Rain = 0
KARS 142110Z 18011KT 16/02 A2974 RMK A01 T01620016  RH  038%=      5-min Rain = 0
KARS 142115Z 17012KT 16/02 A2974 RMK A01 T01630017  RH  038%=      5-min Rain = 0
KARS 142120Z 18012KT 16/02 A2974 RMK A01 T01620016  RH  038%=      5-min Rain = 0
KARS 142125Z 18011G16KT 17/02 A2974 RMK A01 T01650017  RH  037%=      5-min Rain = 0
KARS 142130Z 17012KT 16/02 A2974 RMK A01 T01620016  RH  038%=      5-min Rain = 0
KARS 142135Z 17011KT 16/02 A2973 RMK A01 T01640016  RH  037%=      5-min Rain = 0
KARS 142140Z 17012KT 16/02 A2973 RMK A01 T01640015  RH  037%=      5-min Rain = 0
KARS 142145Z 17012KT 17/02 A2973 RMK A01 T01650016  RH  037%=      5-min Rain = 0
KARS 142150Z 17011KT 17/02 A2973 RMK A01 T01650016  RH  037%=      5-min Rain = 0
KARS 142155Z 17012KT 17/02 A2973 RMK A01 T01650015  RH  037%=      5-min Rain = 0
KARS 142200Z 17012KT 16/02 A2973 RMK A01 T01640015  RH  037%=      5-min Rain = 0
KARS 142205Z 16011KT 16/02 A2973 RMK A01 T01630015  RH  037%=      5-min Rain = 0
KARS 142210Z 16012KT 16/02 A2973 RMK A01 T01620015  RH  038%=      5-min Rain = 0
KARS 142215Z 15011KT 16/02 A2973 RMK A01 T01620016  RH  038%=      5-min Rain = 0
KARS 142220Z 15011KT 16/02 A2972 RMK A01 T01630016  RH  038%=      5-min Rain = 0
KARS 142225Z 15011KT 16/02 A2973 RMK A01 T01630016  RH  038%=      5-min Rain = 0
KARS 142230Z 15011KT 16/02 A2973 RMK A01 T01620016  RH  038%=      5-min Rain = 0
KARS 142235Z 15011KT 16/02 A2973 RMK A01 T01610017  RH  038%=      5-min Rain = 0
KARS 142240Z 15011KT 16/02 A2973 RMK A01 T01600017  RH  039%=      5-min Rain = 0
KARS 142245Z 16009KT 16/02 A2973 RMK A01 T01590016  RH  038%=      5-min Rain = 0
KARS 142250Z 16010KT 16/02 A2973 RMK A01 T01590016  RH  039%=      5-min Rain = 0
KARS 142255Z 15011KT 16/02 A2973 RMK A01 T01570016  RH  039%=      5-min Rain = 0
KARS 142300Z 15010KT 15/01 A2973 RMK A01 T01510014  RH  040%=      5-min Rain = 0
KARS 142305Z 15009KT 15/01 A2973 RMK A01 T01460014  RH  041%=      5-min Rain = 0
KARS 142310Z 14008KT 14/01 A2973 RMK A01 T01410014  RH  042%=      5-min Rain = 0
KARS 142315Z 14008KT 14/01 A2973 RMK A01 T01380014  RH  043%=      5-min Rain = 0
KARS 142320Z 14008KT 14/02 A2973 RMK A01 T01350015  RH  045%=      5-min Rain = 0
KARS 142325Z 13008KT 13/02 A2973 RMK A01 T01320015  RH  046%=      5-min Rain = 0
KARS 142330Z 13008KT 13/01 A2973 RMK A01 T01310014  RH  046%=      5-min Rain = 0
KARS 142335Z 13008KT 13/01 A2973 RMK A01 T01280013  RH  046%=      5-min Rain = 0
KARS 142340Z 13008KT 12/01 A2973 RMK A01 T01240013  RH  047%=      5-min Rain = 0
KARS 142345Z 14009KT 12/01 A2973 RMK A01 T01190012  RH  049%=      5-min Rain = 0
KARS 142350Z 14008KT 12/01 A2973 RMK A01 T01150012  RH  050%=      5-min Rain = 0
KARS 142355Z 13008KT 11/01 A2973 RMK A01 T01110012  RH  051%=      5-min Rain = 0
KARS 150000Z 14008KT 11/01 A2973 RMK A01 T01090012  RH  052%=      5-min Rain = 0
KARS 150005Z 14008KT 11/01 A2973 RMK A01 T01050011  RH  053%=      5-min Rain = 0
KARS 150010Z 14008KT 10/01 A2973 RMK A01 T01000010  RH  054%=      5-min Rain = 0
KARS 150015Z 14008KT 10/01 A2973 RMK A01 T00980010  RH  055%=      5-min Rain = 0
KARS 150020Z 13007KT 10/01 A2973 RMK A01 T00950010  RH  056%=      5-min Rain = 0
KARS 150025Z 13007KT 09/01 A2973 RMK A01 T00930010  RH  057%=      5-min Rain = 0
KARS 150030Z 14008KT 09/01 A2973 RMK A01 T00920010  RH  057%=      5-min Rain = 0
KARS 150035Z 13008KT 09/01 A2973 RMK A01 T00910011  RH  058%=      5-min Rain = 0
KARS 150040Z 13007KT 09/01 A2973 RMK A01 T00920012  RH  058%=      5-min Rain = 0
KARS 150045Z 12006KT 09/01 A2974 RMK A01 T00930012  RH  058%=      5-min Rain = 0
KARS 150050Z 12006KT 09/01 A2973 RMK A01 T00930012  RH  058%=      5-min Rain = 0
KARS 150055Z 13007KT 09/01 A2974 RMK A01 T00940013  RH  058%=      5-min Rain = 0
KARS 150100Z 13007KT 10/01 A2974 RMK A01 T00950014  RH  058%=      5-min Rain = 0
KARS 150105Z 13008KT 09/01 A2974 RMK A01 T00920013  RH  059%=      5-min Rain = 0
KARS 150110Z 13007KT 09/01 A2974 RMK A01 T00900013  RH  059%=      5-min Rain = 0
KARS 150115Z 14007KT 09/01 A2974 RMK A01 T00850012  RH  061%=      5-min Rain = 0
KARS 150120Z 14007KT 08/01 A2974 RMK A01 T00820011  RH  062%=      5-min Rain = 0
KARS 150125Z 14008KT 08/01 A2974 RMK A01 T00810012  RH  063%=      5-min Rain = 0
KARS 150130Z 13008KT 08/01 A2974 RMK A01 T00810012  RH  063%=      5-min Rain = 0
KARS 150135Z 13008KT 08/01 A2974 RMK A01 T00820013  RH  063%=      5-min Rain = 0
KARS 150140Z 13008KT 08/01 A2974 RMK A01 T00820014  RH  063%=      5-min Rain = 0
KARS 150145Z 12008KT 08/01 A2974 RMK A01 T00800013  RH  064%=      5-min Rain = 0
KARS 150150Z 12009KT 08/01 A2974 RMK A01 T00800014  RH  064%=      5-min Rain = 0
KARS 150155Z 12007KT 08/01 A2974 RMK A01 T00790014  RH  064%=      5-min Rain = 0
KARS 150200Z 12005KT 08/01 A2975 RMK A01 T00760013  RH  065%=      5-min Rain = 0
KARS 150205Z 11005KT 07/01 A2975 RMK A01 T00740014  RH  066%=      5-min Rain = 0
KARS 150210Z 11006KT 07/01 A2975 RMK A01 T00690011  RH  067%=      5-min Rain = 0
KARS 150215Z 11006KT 07/01 A2975 RMK A01 T00660011  RH  069%=      5-min Rain = 0
KARS 150220Z 11006KT 06/01 A2975 RMK A01 T00640011  RH  069%=      5-min Rain = 0
KARS 150225Z 12007KT 06/01 A2975 RMK A01 T00640011  RH  070%=      5-min Rain = 0
KARS 150230Z 12007KT 07/01 A2975 RMK A01 T00660013  RH  070%=      5-min Rain = 0
KARS 150235Z 12008KT 07/02 A2975 RMK A01 T00680015  RH  070%=      5-min Rain = 0
KARS 150240Z 12008KT 07/02 A2975 RMK A01 T00680015  RH  070%=      5-min Rain = 0
KARS 150245Z 13008KT 07/02 A2975 RMK A01 T00670016  RH  071%=      5-min Rain = 0
KARS 150250Z 13007KT 07/02 A2975 RMK A01 T00670016  RH  071%=      5-min Rain = 0
KARS 150255Z 13008KT 07/02 A2975 RMK A01 T00670017  RH  071%=      5-min Rain = 0
KARS 150300Z 13009KT 07/02 A2975 RMK A01 T00660017  RH  072%=      5-min Rain = 0
KARS 150305Z 13009KT 07/02 A2975 RMK A01 T00650017  RH  073%=      5-min Rain = 0
KARS 150310Z 13009KT 07/02 A2975 RMK A01 T00650017  RH  073%=      5-min Rain = 0
KARS 150315Z 13009KT 06/02 A2975 RMK A01 T00640017  RH  073%=      5-min Rain = 0
KARS 150320Z 13008KT 06/02 A2975 RMK A01 T00610016  RH  074%=      5-min Rain = 0
KARS 150325Z 13008KT 06/02 A2975 RMK A01 T00590015  RH  074%=      5-min Rain = 0
KARS 150330Z 13008KT 06/02 A2975 RMK A01 T00580015  RH  075%=      5-min Rain = 0
KARS 150335Z 13007KT 06/02 A2975 RMK A01 T00580015  RH  075%=      5-min Rain = 0
KARS 150340Z 12007KT 06/01 A2975 RMK A01 T00560014  RH  076%=      5-min Rain = 0
KARS 150345Z 12007KT 06/01 A2975 RMK A01 T00550014  RH  076%=      5-min Rain = 0
KARS 150350Z 12007KT 06/01 A2975 RMK A01 T00550014  RH  076%=      5-min Rain = 0
KARS 150355Z 13007KT 05/01 A2975 RMK A01 T00540014  RH  077%=      5-min Rain = 0
KARS 150400Z 13006KT 05/01 A2975 RMK A01 T00510013  RH  077%=      5-min Rain = 0
KARS 150405Z 13006KT 05/01 A2975 RMK A01 T00490012  RH  078%=      5-min Rain = 0
KARS 150410Z 13006KT 05/01 A2975 RMK A01 T00480011  RH  078%=      5-min Rain = 0
KARS 150415Z 14007KT 05/01 A2975 RMK A01 T00460011  RH  079%=      5-min Rain = 0
KARS 150420Z 13007KT 05/01 A2975 RMK A01 T00460012  RH  079%=      5-min Rain = 0
KARS 150425Z 13006KT 05/01 A2975 RMK A01 T00460011  RH  079%=      5-min Rain = 0
KARS 150430Z 13006KT 05/01 A2974 RMK A01 T00450011  RH  080%=      5-min Rain = 0
KARS 150435Z 13007KT 05/01 A2974 RMK A01 T00450011  RH  080%=      5-min Rain = 0
KARS 150440Z 13007KT 04/01 A2974 RMK A01 T00440011  RH  080%=      5-min Rain = 0
KARS 150445Z 13008KT 05/01 A2974 RMK A01 T00460013  RH  080%=      5-min Rain = 0
KARS 150450Z 13008KT 05/01 A2974 RMK A01 T00480014  RH  080%=      5-min Rain = 0
KARS 150455Z 13008KT 05/01 A2974 RMK A01 T00490014  RH  079%=      5-min Rain = 0
KARS 150500Z 13008KT 05/02 A2974 RMK A01 T00480015  RH  080%=      5-min Rain = 0
KARS 150505Z 13008KT 05/02 A2974 RMK A01 T00480015  RH  080%=      5-min Rain = 0
KARS 150510Z 13008KT 05/01 A2974 RMK A01 T00470014  RH  080%=      5-min Rain = 0
KARS 150515Z 13007KT 05/02 A2974 RMK A01 T00470015  RH  081%=      5-min Rain = 0
KARS 150520Z 13007KT 05/02 A2974 RMK A01 T00460015  RH  081%=      5-min Rain = 0
KARS 150525Z 13007KT 05/01 A2973 RMK A01 T00450014  RH  082%=      5-min Rain = 0
KARS 150530Z 13008KT 05/02 A2973 RMK A01 T00450016  RH  082%=      5-min Rain = 0
KARS 150535Z 13007KT 05/02 A2973 RMK A01 T00480017  RH  082%=      5-min Rain = 0
KARS 150540Z 13007KT 05/02 A2973 RMK A01 T00490018  RH  082%=      5-min Rain = 0
KARS 150545Z 13007KT 05/02 A2973 RMK A01 T00500019  RH  082%=      5-min Rain = 0
KARS 150550Z 13007KT 05/02 A2973 RMK A01 T00510019  RH  082%=      5-min Rain = 0
KARS 150555Z 13008KT 05/02 A2973 RMK A01 T00510021  RH  082%=      5-min Rain = 0

Page generated in 0.0161 seconds.